createdAt,value
2022-12-11T00:00:17.763Z,0.70
2022-12-11T00:03:05.492Z,0.80
2022-12-11T00:05:52.105Z,0.90
2022-12-11T00:08:38.554Z,0.80
2022-12-11T00:11:25.183Z,0.90
2022-12-11T00:14:11.987Z,0.90
2022-12-11T00:16:58.405Z,0.90
2022-12-11T00:19:46.688Z,1.00
2022-12-11T00:22:33.155Z,1.00
2022-12-11T00:25:19.673Z,1.00
2022-12-11T00:28:06.399Z,1.00
2022-12-11T00:30:53.007Z,1.10
2022-12-11T00:33:39.442Z,1.20
2022-12-11T00:36:28.365Z,1.20
2022-12-11T00:39:14.986Z,1.30
2022-12-11T00:42:01.344Z,1.30
2022-12-11T00:44:47.784Z,1.30
2022-12-11T00:47:34.162Z,1.30
2022-12-11T00:50:20.543Z,1.40
2022-12-11T00:53:08.681Z,1.50
2022-12-11T00:55:55.299Z,1.50
2022-12-11T00:58:41.652Z,1.40
2022-12-11T01:01:28.166Z,1.40
2022-12-11T01:04:15.120Z,1.40
2022-12-11T01:07:01.509Z,1.40
2022-12-11T01:10:06.902Z,1.40
2022-12-11T01:12:55.130Z,1.40
2022-12-11T01:15:44.750Z,1.40
2022-12-11T01:18:31.586Z,1.40
2022-12-11T01:21:18.017Z,1.40
2022-12-11T01:24:04.934Z,1.50
2022-12-11T01:26:52.771Z,1.50
2022-12-11T01:29:39.213Z,1.60
2022-12-11T01:32:25.574Z,1.60
2022-12-11T01:35:13.122Z,1.50
2022-12-11T01:38:00.280Z,1.50
2022-12-11T01:40:54.096Z,1.50
2022-12-11T01:44:00.904Z,1.40
2022-12-11T01:46:47.362Z,1.40
2022-12-11T01:49:33.872Z,1.30
2022-12-11T01:52:22.910Z,1.40
2022-12-11T01:55:10.456Z,1.40
2022-12-11T01:57:57.162Z,1.40
2022-12-11T02:00:45.272Z,1.50
2022-12-11T02:03:31.934Z,1.60
2022-12-11T02:06:39.424Z,1.60
2022-12-11T02:09:32.202Z,1.50
2022-12-11T02:12:27.323Z,1.50
2022-12-11T02:15:20.443Z,1.50
2022-12-11T02:18:16.413Z,1.60
2022-12-11T02:21:10.628Z,1.60
2022-12-11T02:24:13.894Z,1.50
2022-12-11T02:27:21.138Z,1.50
2022-12-11T02:30:11.238Z,1.40
2022-12-11T02:32:59.730Z,1.40
2022-12-11T02:35:48.008Z,1.30
2022-12-11T02:38:38.584Z,1.30
2022-12-11T02:41:25.712Z,1.40
2022-12-11T02:44:14.785Z,1.40
2022-12-11T02:47:05.168Z,1.40
2022-12-11T02:49:52.969Z,1.40
2022-12-11T02:52:42.579Z,1.30
2022-12-11T02:55:30.717Z,1.30
2022-12-11T02:58:21.225Z,1.30
2022-12-11T03:01:08.018Z,1.30
2022-12-11T03:03:57.318Z,1.20
2022-12-11T03:06:46.993Z,1.10
2022-12-11T03:09:33.469Z,1.00
2022-12-11T03:12:24.094Z,1.00
2022-12-11T03:15:14.536Z,0.90
2022-12-11T03:18:06.902Z,1.00
2022-12-11T03:21:06.767Z,1.10
2022-12-11T03:24:02.940Z,1.20
2022-12-11T03:26:58.408Z,1.20
2022-12-11T03:29:53.639Z,1.20
2022-12-11T03:32:44.542Z,1.20
2022-12-11T03:35:35.628Z,1.10
2022-12-11T03:38:27.009Z,1.00
2022-12-11T03:41:15.472Z,1.00
2022-12-11T03:44:02.041Z,0.90
2022-12-11T03:46:50.766Z,0.90
2022-12-11T03:49:42.283Z,0.80
2022-12-11T03:52:30.167Z,0.70
2022-12-11T03:55:20.239Z,0.80
2022-12-11T03:58:06.901Z,0.80
2022-12-11T04:00:53.495Z,1.00
2022-12-11T04:03:40.483Z,1.00
2022-12-11T04:06:26.926Z,1.10
2022-12-11T04:09:13.507Z,1.10
2022-12-11T04:12:01.645Z,1.20
2022-12-11T04:15:03.141Z,1.20
2022-12-11T04:18:07.557Z,1.20
2022-12-11T04:21:12.512Z,1.20
2022-12-11T04:24:17.786Z,1.30
2022-12-11T04:27:05.643Z,1.20
2022-12-11T04:29:51.975Z,1.00
2022-12-11T04:32:38.578Z,1.00
2022-12-11T04:35:25.245Z,0.90
2022-12-11T04:38:11.874Z,0.90
2022-12-11T04:40:59.919Z,1.00
2022-12-11T04:43:48.492Z,1.00
2022-12-11T04:46:35.548Z,1.00
2022-12-11T04:49:22.199Z,0.80
2022-12-11T04:52:08.621Z,0.90
2022-12-11T04:54:55.126Z,1.00
2022-12-11T04:57:41.592Z,1.10
2022-12-11T05:00:29.490Z,1.20
2022-12-11T05:03:16.898Z,1.20
2022-12-11T05:06:03.275Z,1.30
2022-12-11T05:08:49.539Z,1.20
2022-12-11T05:11:37.253Z,1.00
2022-12-11T05:14:23.953Z,0.90
2022-12-11T05:17:11.862Z,1.00
2022-12-11T05:19:58.376Z,0.90
2022-12-11T05:22:44.761Z,1.10
2022-12-11T05:25:31.134Z,1.10
2022-12-11T05:28:17.528Z,1.00
2022-12-11T05:31:07.706Z,1.10
2022-12-11T05:33:56.123Z,1.10
2022-12-11T05:36:42.508Z,1.00
2022-12-11T05:39:28.947Z,1.00
2022-12-11T05:42:15.262Z,1.00
2022-12-11T05:45:01.811Z,1.00
2022-12-11T05:47:48.234Z,1.00
2022-12-11T05:50:35.842Z,1.10
2022-12-11T05:53:22.224Z,1.10
2022-12-11T05:56:11.842Z,1.10
2022-12-11T05:59:00.088Z,1.20
2022-12-11T06:01:46.886Z,1.10
2022-12-11T06:04:33.441Z,0.90
2022-12-11T06:07:21.216Z,0.90
2022-12-11T06:10:08.555Z,0.90
2022-12-11T06:12:55.187Z,0.90
2022-12-11T06:15:42.165Z,1.00
2022-12-11T06:18:28.475Z,0.90
2022-12-11T06:21:16.327Z,1.00
2022-12-11T06:24:05.584Z,0.90
2022-12-11T06:26:51.939Z,1.00
2022-12-11T06:29:38.703Z,1.00
2022-12-11T06:32:25.104Z,0.60
2022-12-11T06:35:12.831Z,0.60
2022-12-11T06:38:00.605Z,0.70
2022-12-11T06:40:55.890Z,0.70
2022-12-11T06:43:43.199Z,0.70
2022-12-11T06:46:29.772Z,0.70
2022-12-11T06:49:16.840Z,0.70
2022-12-11T06:52:03.119Z,0.70
2022-12-11T06:54:49.636Z,0.70
2022-12-11T06:57:37.891Z,0.90
2022-12-11T07:00:24.508Z,0.90
2022-12-11T07:03:11.545Z,0.80
2022-12-11T07:06:02.254Z,0.70
2022-12-11T07:08:48.854Z,0.70
2022-12-11T07:11:35.462Z,0.60
2022-12-11T07:14:23.275Z,0.60
2022-12-11T07:17:09.691Z,0.60
2022-12-11T07:19:56.015Z,0.70
2022-12-11T07:22:46.411Z,0.70
2022-12-11T07:25:33.539Z,0.80
2022-12-11T07:28:19.986Z,0.80
2022-12-11T07:31:08.697Z,1.00
2022-12-11T07:33:55.883Z,1.00
2022-12-11T07:36:43.454Z,1.10
2022-12-11T07:39:30.030Z,1.00
2022-12-11T07:42:16.422Z,1.00
2022-12-11T07:45:02.843Z,0.80
2022-12-11T07:47:50.520Z,0.90
2022-12-11T07:50:39.973Z,0.80
2022-12-11T07:53:26.757Z,1.00
2022-12-11T07:56:13.433Z,1.00
2022-12-11T07:59:01.103Z,1.20
2022-12-11T08:01:47.427Z,1.40
2022-12-11T08:04:35.407Z,1.50
2022-12-11T08:07:22.165Z,1.70
2022-12-11T08:10:09.006Z,1.80
2022-12-11T08:12:55.443Z,1.90
2022-12-11T08:15:41.919Z,1.90
2022-12-11T08:18:28.273Z,2.00
2022-12-11T08:21:18.358Z,2.10
2022-12-11T08:24:05.335Z,2.10
2022-12-11T08:26:51.739Z,2.30
2022-12-11T08:29:38.418Z,2.40
2022-12-11T08:32:24.901Z,2.50
2022-12-11T08:35:11.924Z,2.60
2022-12-11T08:38:00.121Z,2.80
2022-12-11T08:40:46.842Z,2.80
2022-12-11T08:43:34.844Z,2.70
2022-12-11T08:46:22.242Z,2.70
2022-12-11T08:49:09.207Z,2.90
2022-12-11T08:51:55.909Z,3.00
2022-12-11T08:54:43.799Z,3.10
2022-12-11T08:57:30.691Z,2.90
2022-12-11T09:00:18.730Z,2.90
2022-12-11T09:03:08.467Z,2.80
2022-12-11T09:05:59.541Z,2.80
2022-12-11T09:08:52.208Z,2.90
2022-12-11T09:11:40.848Z,2.70
2022-12-11T09:14:27.627Z,2.70
2022-12-11T09:17:14.222Z,2.80
2022-12-11T09:20:00.685Z,2.60
2022-12-11T09:22:47.054Z,2.60
2022-12-11T09:25:33.529Z,2.80
2022-12-11T09:28:21.956Z,2.90
2022-12-11T09:31:10.883Z,3.00
2022-12-11T09:34:01.909Z,3.00
2022-12-11T09:36:48.621Z,3.00
2022-12-11T09:39:35.098Z,3.10
2022-12-11T09:42:28.879Z,3.10
2022-12-11T09:45:17.723Z,3.10
2022-12-11T09:48:04.556Z,3.10
2022-12-11T09:50:54.971Z,3.00
2022-12-11T09:53:41.828Z,3.10
2022-12-11T09:56:34.285Z,3.20
2022-12-11T09:59:29.753Z,3.30
2022-12-11T10:02:27.444Z,3.40
2022-12-11T10:05:21.826Z,3.50
2022-12-11T10:08:16.360Z,3.20
2022-12-11T10:11:18.000Z,3.10
2022-12-11T10:14:14.428Z,3.00
2022-12-11T10:17:06.573Z,3.00
2022-12-11T10:19:55.931Z,2.90
2022-12-11T10:22:42.470Z,2.90
2022-12-11T10:25:32.147Z,3.00
2022-12-11T10:28:21.051Z,3.00
2022-12-11T10:31:16.891Z,3.00
2022-12-11T10:34:06.138Z,2.80
2022-12-11T10:37:00.257Z,2.90
2022-12-11T10:39:47.090Z,2.90
2022-12-11T10:42:33.558Z,2.80
2022-12-11T10:45:21.133Z,2.80
2022-12-11T10:48:11.680Z,2.50
2022-12-11T10:51:02.637Z,2.50
2022-12-11T10:53:56.452Z,2.50
2022-12-11T10:56:48.092Z,2.60
2022-12-11T10:59:39.207Z,2.70
2022-12-11T11:02:28.947Z,2.60
2022-12-11T11:05:18.241Z,2.80
2022-12-11T11:08:13.601Z,2.70
2022-12-11T11:11:02.918Z,2.90
2022-12-11T11:13:49.933Z,2.90
2022-12-11T11:16:38.236Z,3.00
2022-12-11T11:19:28.022Z,3.10
2022-12-11T11:22:17.762Z,3.20
2022-12-11T11:25:05.089Z,3.40
2022-12-11T11:27:55.486Z,3.40
2022-12-11T11:30:43.721Z,3.40
2022-12-11T11:33:31.962Z,3.30
2022-12-11T11:36:22.958Z,3.30
2022-12-11T11:39:20.969Z,3.20
2022-12-11T11:42:16.037Z,3.00
2022-12-11T11:45:08.001Z,2.90
2022-12-11T11:48:11.303Z,2.80
2022-12-11T11:50:59.417Z,2.80
2022-12-11T11:53:50.598Z,2.70
2022-12-11T11:56:38.863Z,2.70
2022-12-11T11:59:32.132Z,2.80
2022-12-11T12:02:20.756Z,2.70
2022-12-11T12:05:07.864Z,2.80
2022-12-11T12:08:06.966Z,3.00
2022-12-11T12:11:03.823Z,3.00
2022-12-11T12:13:59.978Z,3.00
2022-12-11T12:16:56.664Z,3.00
2022-12-11T12:19:53.619Z,3.00
2022-12-11T12:22:58.418Z,3.00
2022-12-11T12:25:50.029Z,2.90
2022-12-11T12:28:48.919Z,3.00
2022-12-11T12:31:54.519Z,3.00
2022-12-11T12:34:53.148Z,3.00
2022-12-11T12:37:48.932Z,3.00
2022-12-11T12:40:40.893Z,3.10
2022-12-11T12:43:50.813Z,3.20
2022-12-11T12:46:52.361Z,3.20
2022-12-11T12:49:42.627Z,3.20
2022-12-11T12:52:33.699Z,3.20
2022-12-11T12:55:27.139Z,3.10
2022-12-11T12:58:26.185Z,3.20
2022-12-11T13:01:19.282Z,3.30
2022-12-11T13:04:16.778Z,3.30
2022-12-11T13:07:23.194Z,3.20
2022-12-11T13:10:29.906Z,3.30
2022-12-11T13:13:36.856Z,3.30
2022-12-11T13:16:28.598Z,3.30
2022-12-11T13:19:27.284Z,3.20
2022-12-11T13:22:23.195Z,3.10
2022-12-11T13:25:23.454Z,3.00
2022-12-11T13:28:23.991Z,3.00
2022-12-11T13:31:31.476Z,3.00
2022-12-11T13:34:24.647Z,3.00
2022-12-11T13:37:25.740Z,2.90
2022-12-11T13:40:20.565Z,2.90
2022-12-11T13:43:15.831Z,2.90
2022-12-11T13:46:05.054Z,2.90
2022-12-11T13:48:55.297Z,2.70
2022-12-11T13:51:51.879Z,2.80
2022-12-11T13:54:38.343Z,2.90
2022-12-11T13:57:28.397Z,2.80
2022-12-11T14:00:22.479Z,2.80
2022-12-11T14:03:09.153Z,2.80
2022-12-11T14:05:55.701Z,2.90
2022-12-11T14:08:46.150Z,2.90
2022-12-11T14:11:36.841Z,2.70
2022-12-11T14:14:29.655Z,2.80
2022-12-11T14:17:19.269Z,3.00
2022-12-11T14:20:08.377Z,2.90
2022-12-11T14:23:05.935Z,2.90
2022-12-11T14:25:57.478Z,2.90
2022-12-11T14:28:44.614Z,2.80
2022-12-11T14:31:37.362Z,2.80
2022-12-11T14:34:27.192Z,2.80
2022-12-11T14:37:16.752Z,2.80
2022-12-11T14:40:07.086Z,2.90
2022-12-11T14:43:00.422Z,3.00
2022-12-11T14:45:50.610Z,2.80
2022-12-11T14:48:45.688Z,2.70
2022-12-11T14:51:39.448Z,2.60
2022-12-11T14:54:31.847Z,2.60
2022-12-11T14:57:23.866Z,2.60
2022-12-11T15:00:23.641Z,2.60
2022-12-11T15:03:23.639Z,2.60
2022-12-11T15:06:26.402Z,2.60
2022-12-11T15:09:21.671Z,2.70
2022-12-11T15:12:14.074Z,2.60
2022-12-11T15:15:04.224Z,2.60
2022-12-11T15:17:53.120Z,2.50
2022-12-11T15:20:39.725Z,2.50
2022-12-11T15:23:27.980Z,2.40
2022-12-11T15:26:14.818Z,2.30
2022-12-11T15:29:02.219Z,2.20
2022-12-11T15:31:59.399Z,2.20
2022-12-11T15:34:48.849Z,2.20
2022-12-11T15:37:38.332Z,2.20
2022-12-11T15:40:26.639Z,2.30
2022-12-11T15:43:13.071Z,2.30
2022-12-11T15:45:59.677Z,2.20
2022-12-11T15:48:48.216Z,2.20
2022-12-11T15:51:39.711Z,2.30
2022-12-11T15:54:29.223Z,2.30
2022-12-11T15:57:20.275Z,2.20
2022-12-11T16:00:08.377Z,2.20
2022-12-11T16:02:55.954Z,2.20
2022-12-11T16:05:43.632Z,2.20
2022-12-11T16:08:30.703Z,2.30
2022-12-11T16:11:17.889Z,2.20
2022-12-11T16:14:05.818Z,2.10
2022-12-11T16:16:53.875Z,2.10
2022-12-11T16:19:41.414Z,2.10
2022-12-11T16:22:28.161Z,2.10
2022-12-11T16:25:14.897Z,2.10
2022-12-11T16:28:02.701Z,2.10
2022-12-11T16:30:50.855Z,2.10
2022-12-11T16:33:38.032Z,2.10
2022-12-11T16:36:25.076Z,2.10
2022-12-11T16:39:12.204Z,2.00
2022-12-11T16:41:58.989Z,2.00
2022-12-11T16:44:45.382Z,2.00
2022-12-11T16:47:33.210Z,2.00
2022-12-11T16:50:20.200Z,2.00
2022-12-11T16:53:06.426Z,2.00
2022-12-11T16:55:53.553Z,2.00
2022-12-11T16:58:40.790Z,2.00
2022-12-11T17:01:27.559Z,2.00
2022-12-11T17:04:15.810Z,2.00
2022-12-11T17:07:03.091Z,2.00
2022-12-11T17:09:49.563Z,2.10
2022-12-11T17:12:36.942Z,2.00
2022-12-11T17:15:23.464Z,2.00
2022-12-11T17:18:10.318Z,2.00
2022-12-11T17:20:58.786Z,1.90
2022-12-11T17:23:45.494Z,1.90
2022-12-11T17:26:32.126Z,1.80
2022-12-11T17:29:19.904Z,1.80
2022-12-11T17:32:06.921Z,1.70
2022-12-11T17:34:53.319Z,1.80
2022-12-11T17:37:41.542Z,1.80
2022-12-11T17:40:28.006Z,1.80
2022-12-11T17:43:14.550Z,1.80
2022-12-11T17:46:03.988Z,1.70
2022-12-11T17:48:50.525Z,1.80
2022-12-11T17:51:37.341Z,1.70
2022-12-11T17:54:25.542Z,1.70
2022-12-11T17:57:12.437Z,1.70
2022-12-11T17:59:58.966Z,1.60
2022-12-11T18:02:45.476Z,1.70
2022-12-11T18:05:32.025Z,1.70
2022-12-11T18:08:22.244Z,1.80
2022-12-11T18:11:12.758Z,1.80
2022-12-11T18:13:59.332Z,1.90
2022-12-11T18:16:46.238Z,1.80
2022-12-11T18:19:32.828Z,1.70
2022-12-11T18:22:19.929Z,1.80
2022-12-11T18:25:10.203Z,1.70
2022-12-11T18:27:59.776Z,1.50
2022-12-11T18:30:47.972Z,1.50
2022-12-11T18:33:37.477Z,1.40
2022-12-11T18:36:23.986Z,1.30
2022-12-11T18:39:10.819Z,1.20
2022-12-11T18:42:24.226Z,1.40
2022-12-11T18:45:06.896Z,1.40
2022-12-11T18:47:53.377Z,1.40
2022-12-11T18:50:45.195Z,1.20
2022-12-11T18:53:31.813Z,1.10
2022-12-11T18:56:20.399Z,1.20
2022-12-11T18:59:06.698Z,1.10
2022-12-11T19:01:54.585Z,0.90
2022-12-11T19:04:41.117Z,0.90
2022-12-11T19:07:27.619Z,1.00
2022-12-11T19:10:14.029Z,1.00
2022-12-11T19:13:00.458Z,0.90
2022-12-11T19:15:46.886Z,0.80
2022-12-11T19:18:35.146Z,0.70
2022-12-11T19:21:21.880Z,0.70
2022-12-11T19:24:12.939Z,0.60
2022-12-11T19:26:59.797Z,0.60
2022-12-11T19:29:46.343Z,0.50
2022-12-11T19:32:36.401Z,0.70
2022-12-11T19:35:24.435Z,0.60
2022-12-11T19:38:12.644Z,0.40
2022-12-11T19:40:59.519Z,0.40
2022-12-11T19:43:46.636Z,0.40
2022-12-11T19:46:33.139Z,0.60
2022-12-11T19:49:19.998Z,0.60
2022-12-11T19:52:07.780Z,0.50
2022-12-11T19:54:54.385Z,0.40
2022-12-11T19:57:40.735Z,0.40
2022-12-11T20:00:27.288Z,0.40
2022-12-11T20:03:14.833Z,0.40
2022-12-11T20:06:02.254Z,0.40
2022-12-11T20:08:50.619Z,0.50
2022-12-11T20:11:38.866Z,0.50
2022-12-11T20:14:27.199Z,0.70
2022-12-11T20:17:14.821Z,0.80
2022-12-11T20:20:01.695Z,0.80
2022-12-11T20:22:48.450Z,1.00
2022-12-11T20:25:36.026Z,1.00
2022-12-11T20:28:22.565Z,1.20
2022-12-11T20:31:16.556Z,1.10
2022-12-11T20:34:08.154Z,1.20
2022-12-11T20:36:54.643Z,1.20
2022-12-11T20:39:41.046Z,1.20
2022-12-11T20:42:28.865Z,1.10
2022-12-11T20:45:16.075Z,1.20
2022-12-11T20:48:02.680Z,1.30
2022-12-11T20:50:49.860Z,1.30
2022-12-11T20:53:36.887Z,1.40
2022-12-11T20:56:23.398Z,1.30
2022-12-11T20:59:11.937Z,1.20
2022-12-11T21:01:58.558Z,1.30
2022-12-11T21:04:47.302Z,1.40
2022-12-11T21:07:33.722Z,1.50
2022-12-11T21:10:20.145Z,1.50
2022-12-11T21:13:06.829Z,1.40
2022-12-11T21:15:56.654Z,1.50
2022-12-11T21:18:44.237Z,1.50
2022-12-11T21:21:33.198Z,1.50
2022-12-11T21:24:22.830Z,1.40
2022-12-11T21:27:09.528Z,1.50
2022-12-11T21:29:56.321Z,1.40
2022-12-11T21:32:44.794Z,1.30
2022-12-11T21:35:31.206Z,1.20
2022-12-11T21:38:17.715Z,1.20
2022-12-11T21:41:09.365Z,1.20
2022-12-11T21:47:03.948Z,1.20
2022-12-11T21:49:52.099Z,1.20
2022-12-11T21:52:39.567Z,1.00
2022-12-11T21:55:26.062Z,0.90
2022-12-11T21:58:12.422Z,1.00
2022-12-11T22:00:59.014Z,1.00
2022-12-11T22:03:46.111Z,1.10
2022-12-11T22:06:34.278Z,1.00
2022-12-11T22:09:21.046Z,1.00
2022-12-11T22:12:07.918Z,0.90
2022-12-11T22:14:54.602Z,0.90
2022-12-11T22:17:41.227Z,0.90
2022-12-11T22:20:27.607Z,0.80
2022-12-11T22:23:15.415Z,0.90
2022-12-11T22:26:02.270Z,0.90
2022-12-11T22:28:49.280Z,0.90
2022-12-11T22:31:35.730Z,0.90
2022-12-11T22:34:22.606Z,0.90
2022-12-11T22:37:09.465Z,0.90
2022-12-11T22:39:57.361Z,0.80
2022-12-11T22:42:44.280Z,0.80
2022-12-11T22:45:30.977Z,0.90
2022-12-11T22:48:17.593Z,0.90
2022-12-11T22:51:06.578Z,0.80
2022-12-11T22:53:52.976Z,0.80
2022-12-11T22:56:40.951Z,0.70
2022-12-11T22:59:27.538Z,0.80
2022-12-11T23:02:14.039Z,0.80
2022-12-11T23:05:00.999Z,0.80
2022-12-11T23:07:47.454Z,0.80
2022-12-11T23:10:34.290Z,0.80
2022-12-11T23:13:21.912Z,0.80
2022-12-11T23:16:08.347Z,0.80
2022-12-11T23:18:55.277Z,0.90
2022-12-11T23:21:42.215Z,1.00
2022-12-11T23:24:28.940Z,1.10
2022-12-11T23:27:15.305Z,1.30
2022-12-11T23:30:03.065Z,1.20
2022-12-11T23:32:49.374Z,1.10
2022-12-11T23:35:35.978Z,1.20
2022-12-11T23:38:22.408Z,1.30
2022-12-11T23:41:10.332Z,1.20
2022-12-11T23:43:56.745Z,1.10
2022-12-11T23:46:44.945Z,1.10
2022-12-11T23:49:31.697Z,1.00
2022-12-11T23:52:18.182Z,0.90
2022-12-11T23:55:05.443Z,0.80
2022-12-11T23:57:52.374Z,0.80
